Time;durP1;ratioP1;P1;durP2;ratioP2;P2;SDS_P1;SDS_P2;PMS_P1;PMS_P2;Temp;Humidity;BMP_temperature;BMP_pressure;BME280_temperature;BME280_humidity;BME280_pressure;Samples;Min_cycle;Max_cycle;Signal;HPM_P1;HPM_P2
2022/12/18 00:00:06;;;;;;;93.75;38.35;;;-3.20;99.90;;;;;;5023309;28;20045;-65
2022/12/18 00:02:31;;;;;;;91.78;37.10;;;-3.20;99.90;;;;;;5014933;28;20037;-65
2022/12/18 00:04:57;;;;;;;89.35;35.28;;;-3.30;99.90;;;;;;5021012;28;20063;-65
2022/12/18 00:07:23;;;;;;;93.15;39.60;;;-3.30;99.90;;;;;;5019263;28;20057;-65
2022/12/18 00:09:48;;;;;;;96.35;39.75;;;-3.20;99.90;;;;;;5027523;28;20516;-65
2022/12/18 00:12:14;;;;;;;91.47;40.15;;;-3.20;99.90;;;;;;5016538;28;20112;-65
2022/12/18 00:14:40;;;;;;;91.05;38.45;;;-3.30;99.90;;;;;;5038793;28;20034;-65
2022/12/18 00:17:05;;;;;;;82.20;37.40;;;-3.30;99.90;;;;;;5019135;28;20037;-65
2022/12/18 00:19:31;;;;;;;86.45;35.95;;;-3.30;99.90;;;;;;5018260;28;20046;-66
2022/12/18 00:21:58;;;;;;;83.65;34.90;;;-3.30;99.90;;;;;;5017362;28;20038;-65
2022/12/18 00:24:23;;;;;;;83.63;36.70;;;-3.40;99.90;;;;;;5022332;28;20042;-65
2022/12/18 00:26:49;;;;;;;92.38;38.22;;;-3.40;99.90;;;;;;5017556;28;20030;-65
2022/12/18 00:29:14;;;;;;;78.22;36.53;;;-3.40;99.90;;;;;;5016484;28;20052;-65
2022/12/18 00:31:41;;;;;;;85.65;36.25;;;-3.50;99.90;;;;;;5014914;28;20038;-65
2022/12/18 00:34:11;;;;;;;84.25;35.97;;;-3.50;99.90;;;;;;5016755;28;20048;-65
2022/12/18 00:36:37;;;;;;;87.93;37.55;;;-3.50;99.90;;;;;;5021827;28;20042;-65
2022/12/18 00:39:04;;;;;;;84.38;37.33;;;-3.50;99.90;;;;;;5024736;28;20052;-66
2022/12/18 00:44:17;;;;;;;86.95;35.47;;;-3.60;99.90;;;;;;5017122;28;20486;-65
2022/12/18 00:46:43;;;;;;;88.72;37.67;;;-3.60;99.90;;;;;;5016877;28;20453;-65
2022/12/18 00:49:09;;;;;;;79.32;36.80;;;-3.60;99.90;;;;;;5012797;28;20041;-65
2022/12/18 00:51:35;;;;;;;89.65;38.70;;;-3.60;99.90;;;;;;5028589;28;20057;-65
2022/12/18 00:54:01;;;;;;;83.82;36.05;;;-3.60;99.90;;;;;;5016930;28;20030;-65
2022/12/18 00:56:27;;;;;;;82.63;36.97;;;-3.70;99.90;;;;;;5016299;28;20037;-65
2022/12/18 00:58:52;;;;;;;87.60;38.58;;;-3.70;99.90;;;;;;5015092;28;20042;-65
2022/12/18 01:01:18;;;;;;;83.80;36.83;;;-3.70;99.90;;;;;;5014438;28;20262;-66
2022/12/18 01:03:46;;;;;;;87.05;37.92;;;-3.70;99.90;;;;;;5018590;28;20116;-64
2022/12/18 01:06:14;;;;;;;81.68;37.45;;;-3.80;99.90;;;;;;5016337;28;20077;-64
2022/12/18 01:08:39;;;;;;;84.55;37.47;;;-3.80;99.90;;;;;;5017062;28;20084;-65
2022/12/18 01:11:16;;;;;;;82.93;34.63;;;-3.80;99.90;;;;;;5017065;28;20103;-64
2022/12/18 01:13:42;;;;;;;82.10;36.60;;;-3.80;99.90;;;;;;5018715;28;20112;-66
2022/12/18 01:16:10;;;;;;;91.15;38.92;;;-3.80;99.90;;;;;;5010082;28;20599;-65
2022/12/18 01:18:36;;;;;;;85.00;39.80;;;-3.90;99.90;;;;;;5017947;28;20073;-66
2022/12/18 01:21:09;;;;;;;83.45;38.10;;;-3.90;99.90;;;;;;5013712;28;20782;-66
2022/12/18 01:23:35;;;;;;;85.05;38.72;;;-3.90;99.90;;;;;;5016978;28;20038;-66
2022/12/18 01:26:06;;;;;;;86.78;37.70;;;-4.00;99.90;;;;;;5018463;28;20034;-66
2022/12/18 01:28:31;;;;;;;89.30;39.35;;;-4.00;99.90;;;;;;5015459;28;20037;-66
2022/12/18 01:30:57;;;;;;;92.82;39.20;;;-4.00;99.90;;;;;;5017481;28;20048;-66
2022/12/18 01:33:23;;;;;;;97.63;40.45;;;-4.00;99.90;;;;;;5016966;28;20033;-67
2022/12/18 01:35:49;;;;;;;95.28;39.70;;;-4.00;99.90;;;;;;5014666;28;20442;-67
2022/12/18 01:38:14;;;;;;;95.30;39.90;;;-4.00;99.90;;;;;;5018618;28;20141;-67
2022/12/18 01:40:40;;;;;;;93.22;40.92;;;-4.00;99.90;;;;;;5017546;28;20037;-67
2022/12/18 01:43:09;;;;;;;99.45;41.45;;;-4.10;99.90;;;;;;5019205;28;20235;-67
2022/12/18 01:45:35;;;;;;;95.18;40.65;;;-4.00;99.90;;;;;;5014575;28;20079;-67
2022/12/18 01:48:06;;;;;;;99.50;43.65;;;-4.10;99.90;;;;;;5018030;28;20034;-67
2022/12/18 01:50:33;;;;;;;105.18;43.20;;;-4.00;99.90;;;;;;5015830;28;20093;-67
2022/12/18 01:53:02;;;;;;;104.68;43.08;;;-4.10;99.90;;;;;;5023115;28;20068;-67
2022/12/18 01:55:36;;;;;;;107.20;43.58;;;-4.00;99.90;;;;;;5022758;28;20048;-67
2022/12/18 01:58:03;;;;;;;;;;;-4.10;99.90;;;;;;5017487;28;20374;-66
2022/12/18 02:00:29;;;;;;;98.57;40.85;;;-4.10;99.90;;;;;;5030519;28;20455;-66
2022/12/18 02:02:55;;;;;;;89.60;41.13;;;-4.20;99.90;;;;;;5018679;28;20049;-67
2022/12/18 02:05:40;;;;;;;88.20;39.67;;;-4.20;99.90;;;;;;5014300;28;20126;-67
2022/12/18 02:08:28;;;;;;;88.57;39.25;;;-4.30;99.90;;;;;;5020499;28;20457;-67
2022/12/18 02:11:09;;;;;;;88.00;37.83;;;-4.30;99.90;;;;;;5005496;28;20160;-67
2022/12/18 02:13:43;;;;;;;85.35;39.80;;;-4.40;99.90;;;;;;5034351;28;20589;-67
2022/12/18 02:16:21;;;;;;;87.53;38.42;;;-4.40;99.90;;;;;;5022679;28;20112;-67
2022/12/18 02:19:00;;;;;;;88.05;37.70;;;-4.50;99.90;;;;;;5030254;28;20037;-66
2022/12/18 02:22:04;;;;;;;86.07;38.53;;;-4.50;99.90;;;;;;5016827;28;20046;-66
2022/12/18 02:25:23;;;;;;;78.60;36.72;;;-4.60;99.90;;;;;;5016967;28;20077;-66
2022/12/18 02:27:51;;;;;;;89.50;39.45;;;-4.60;99.90;;;;;;5003934;28;20722;-66
2022/12/18 02:30:18;;;;;;;84.45;37.10;;;-4.70;99.90;;;;;;5016405;28;20140;-66
2022/12/18 02:32:49;;;;;;;83.57;36.47;;;-4.70;99.90;;;;;;5018790;28;20674;-66
2022/12/18 02:35:24;;;;;;;88.45;38.15;;;-4.80;99.90;;;;;;5020274;28;20037;-66
2022/12/18 02:37:51;;;;;;;89.30;38.38;;;-4.80;99.90;;;;;;5025090;28;20046;-65
2022/12/18 02:40:18;;;;;;;82.53;36.70;;;-4.90;99.90;;;;;;5020648;28;20089;-65
2022/12/18 02:42:44;;;;;;;84.88;36.85;;;-4.80;99.90;;;;;;5026280;28;20041;-66
2022/12/18 02:45:10;;;;;;;89.75;39.33;;;-4.90;99.90;;;;;;5021421;28;20072;-66
2022/12/18 02:47:44;;;;;;;92.47;37.97;;;-5.00;99.90;;;;;;5013463;28;20041;-65
2022/12/18 02:50:26;;;;;;;80.73;36.93;;;-5.00;99.90;;;;;;5021964;28;20117;-65
2022/12/18 02:53:18;;;;;;;86.18;36.47;;;-5.00;99.90;;;;;;5023989;28;20082;-65
2022/12/18 02:55:49;;;;;;;93.53;39.45;;;-5.10;99.90;;;;;;5027925;28;20195;-66
2022/12/18 02:58:50;;;;;;;84.57;36.80;;;-5.10;99.90;;;;;;5022546;28;20131;-65
2022/12/18 03:01:34;;;;;;;86.20;35.60;;;-5.20;99.90;;;;;;5021967;28;20068;-65
2022/12/18 03:04:06;;;;;;;86.82;37.78;;;-5.10;99.90;;;;;;5023421;28;20077;-65
2022/12/18 03:06:40;;;;;;;88.88;37.30;;;-5.20;99.90;;;;;;5022937;28;20046;-66
2022/12/18 03:09:15;;;;;;;88.25;36.33;;;-5.20;99.90;;;;;;5021360;28;20046;-66
2022/12/18 03:14:33;;;;;;;81.85;37.47;;;-5.20;99.90;;;;;;5023026;28;20433;-65
2022/12/18 03:17:04;;;;;;;84.97;35.60;;;-5.20;99.90;;;;;;5016917;28;20138;-65
2022/12/18 03:19:32;;;;;;;82.88;34.45;;;-5.20;99.90;;;;;;5023997;28;20049;-65
2022/12/18 03:22:03;;;;;;;79.10;35.08;;;-5.20;99.90;;;;;;5018363;28;20049;-65
2022/12/18 03:24:33;;;;;;;82.13;36.50;;;-5.30;99.90;;;;;;5023081;28;20492;-65
2022/12/18 03:27:02;;;;;;;83.85;36.55;;;-5.30;99.90;;;;;;5021388;28;20045;-65
2022/12/18 03:29:51;;;;;;;87.35;36.63;;;-5.30;99.90;;;;;;5020195;28;20473;-65
2022/12/18 03:32:25;;;;;;;78.38;34.88;;;-5.40;99.90;;;;;;5018945;28;20064;-66
2022/12/18 03:34:53;;;;;;;82.00;35.03;;;-5.30;99.90;;;;;;5028580;28;20125;-66
2022/12/18 03:37:19;;;;;;;86.47;35.08;;;-5.40;99.90;;;;;;5023737;28;20891;-66
2022/12/18 03:39:44;;;;;;;84.10;36.75;;;-5.50;99.90;;;;;;5022578;28;20029;-65
2022/12/18 03:42:33;;;;;;;83.90;36.53;;;-5.50;99.90;;;;;;5018160;28;20157;-65
2022/12/18 03:45:10;;;;;;;86.97;35.92;;;-5.50;99.90;;;;;;5019476;28;20064;-66
2022/12/18 03:48:04;;;;;;;90.05;38.67;;;-5.50;99.90;;;;;;5024080;28;20107;-65
2022/12/18 03:50:48;;;;;;;79.18;33.75;;;-5.50;99.90;;;;;;5016844;28;20055;-65
2022/12/18 03:53:23;;;;;;;90.07;35.47;;;-5.60;99.90;;;;;;5016172;28;20140;-65
2022/12/18 03:55:50;;;;;;;;;;;-5.50;99.90;;;;;;5020294;28;20049;-65
2022/12/18 03:58:20;;;;;;;73.55;32.97;;;-5.60;99.90;;;;;;5017094;28;19953;-65
2022/12/18 04:00:49;;;;;;;78.53;33.92;;;-5.60;99.90;;;;;;5016747;28;20351;-65
2022/12/18 04:03:17;;;;;;;82.40;35.10;;;-5.60;99.90;;;;;;5021796;28;20048;-66
2022/12/18 04:05:45;;;;;;;83.88;35.97;;;-5.60;99.90;;;;;;5020636;28;20075;-65
2022/12/18 04:08:11;;;;;;;77.32;32.53;;;-5.70;99.90;;;;;;5017942;28;20049;-65
2022/12/18 04:10:37;;;;;;;79.40;34.92;;;-5.70;99.90;;;;;;5015271;28;20124;-66
2022/12/18 04:13:03;;;;;;;81.18;34.90;;;-5.70;99.90;;;;;;5018915;28;20133;-65
2022/12/18 04:15:29;;;;;;;77.10;33.40;;;-5.70;99.90;;;;;;5019453;28;20038;-65
2022/12/18 04:17:54;;;;;;;84.72;34.80;;;-5.80;99.90;;;;;;5021950;28;20481;-65
2022/12/18 04:20:20;;;;;;;79.10;33.88;;;-5.80;99.90;;;;;;5015923;28;20042;-65
2022/12/18 04:22:46;;;;;;;82.70;34.72;;;-5.80;99.90;;;;;;5025428;28;20379;-65
2022/12/18 04:25:12;;;;;;;79.07;33.63;;;-5.80;99.90;;;;;;5019982;28;20354;-66
2022/12/18 04:27:38;;;;;;;74.03;33.00;;;-5.80;99.90;;;;;;5019599;28;20112;-66
2022/12/18 04:30:05;;;;;;;72.20;31.42;;;-5.90;99.90;;;;;;5018671;28;20084;-66
2022/12/18 04:32:30;;;;;;;70.72;30.95;;;-5.90;99.90;;;;;;5020370;28;20041;-66
2022/12/18 04:34:56;;;;;;;71.15;32.10;;;-5.90;99.90;;;;;;5018201;28;20096;-66
2022/12/18 04:37:22;;;;;;;72.45;33.60;;;-6.00;99.90;;;;;;5020470;28;20026;-65
2022/12/18 04:39:47;;;;;;;72.32;30.73;;;-6.00;99.90;;;;;;5021580;28;20033;-65
2022/12/18 04:42:13;;;;;;;69.78;31.33;;;-6.00;99.90;;;;;;5017359;28;20433;-65
2022/12/18 04:44:39;;;;;;;70.05;31.15;;;-6.00;99.90;;;;;;5036868;28;20052;-65
2022/12/18 04:47:04;;;;;;;64.57;30.02;;;-6.00;99.90;;;;;;5020945;28;20140;-65
2022/12/18 04:49:30;;;;;;;61.55;29.13;;;-6.00;99.90;;;;;;5020978;28;20068;-65
2022/12/18 04:51:56;;;;;;;67.82;30.23;;;-6.10;99.90;;;;;;5017988;28;20284;-65
2022/12/18 04:54:21;;;;;;;63.05;27.38;;;-6.10;99.90;;;;;;5018359;28;20033;-64
2022/12/18 04:56:47;;;;;;;61.55;29.77;;;-6.10;99.90;;;;;;5019498;28;20427;-65
2022/12/18 04:59:13;;;;;;;66.45;28.95;;;-6.10;99.90;;;;;;5023189;28;20068;-66
2022/12/18 05:01:39;;;;;;;64.65;29.25;;;-6.10;99.90;;;;;;5017218;28;20046;-65
2022/12/18 05:04:04;;;;;;;63.47;29.13;;;-6.00;99.90;;;;;;5017642;28;20033;-66
2022/12/18 05:06:30;;;;;;;59.80;26.95;;;-6.00;99.90;;;;;;5015176;28;20049;-66
2022/12/18 05:08:56;;;;;;;62.00;28.45;;;-6.00;99.90;;;;;;5022006;28;20385;-66
2022/12/18 05:11:22;;;;;;;50.83;26.17;;;-6.10;99.90;;;;;;5016594;28;20041;-66
2022/12/18 05:13:47;;;;;;;49.78;26.52;;;-6.10;99.90;;;;;;5021541;28;20029;-66
2022/12/18 05:16:14;;;;;;;56.42;27.00;;;-6.10;99.90;;;;;;5015377;28;20474;-66
2022/12/18 05:18:40;;;;;;;49.55;23.92;;;-6.10;99.90;;;;;;5021016;28;21376;-66
2022/12/18 05:21:05;;;;;;;53.05;25.67;;;-6.10;99.90;;;;;;5020233;28;20193;-66
2022/12/18 05:23:34;;;;;;;51.15;25.67;;;-6.10;99.90;;;;;;5018022;28;20073;-65
2022/12/18 05:26:02;;;;;;;52.03;26.00;;;-6.10;99.90;;;;;;5015321;28;20041;-65
2022/12/18 05:28:30;;;;;;;56.63;27.42;;;-6.20;99.90;;;;;;5016336;28;20045;-65
2022/12/18 05:30:59;;;;;;;52.88;25.48;;;-6.20;99.90;;;;;;5014037;28;20100;-65
2022/12/18 05:33:28;;;;;;;51.20;25.70;;;-6.20;99.90;;;;;;5013859;28;20037;-66
2022/12/18 05:35:56;;;;;;;50.38;25.33;;;-6.30;99.90;;;;;;5012343;28;20041;-66
2022/12/18 05:38:23;;;;;;;48.33;25.23;;;-6.30;99.90;;;;;;5013484;28;20049;-66
2022/12/18 05:40:49;;;;;;;47.60;24.65;;;-6.30;99.90;;;;;;5011918;28;20042;-65
2022/12/18 05:43:16;;;;;;;51.83;25.77;;;-6.30;99.90;;;;;;5012674;28;20049;-65
2022/12/18 05:45:41;;;;;;;54.28;25.27;;;-6.30;99.90;;;;;;5014383;28;20113;-65
2022/12/18 05:48:08;;;;;;;50.03;24.35;;;-6.30;99.90;;;;;;5009502;28;20191;-65
2022/12/18 05:50:38;;;;;;;49.08;24.55;;;-6.30;99.90;;;;;;5015227;28;20053;-65
2022/12/18 05:53:05;;;;;;;47.20;23.73;;;-6.30;99.90;;;;;;5013852;28;20510;-65
2022/12/18 05:55:38;;;;;;;51.70;23.60;;;-6.30;99.90;;;;;;5015966;28;20034;-67
2022/12/18 05:58:06;;;;;;;49.92;23.50;;;-6.30;99.90;;;;;;5014372;28;20261;-65
2022/12/18 06:00:34;;;;;;;49.10;23.83;;;-6.30;99.90;;;;;;5016301;28;20053;-65
2022/12/18 06:03:00;;;;;;;43.83;23.77;;;-6.30;99.90;;;;;;5010857;28;20081;-66
2022/12/18 06:05:26;;;;;;;50.42;25.63;;;-6.30;99.90;;;;;;5008965;28;20040;-66
2022/12/18 06:07:52;;;;;;;45.67;24.10;;;-6.30;99.90;;;;;;5013661;28;20156;-65
2022/12/18 06:10:18;;;;;;;47.90;25.00;;;-6.40;99.90;;;;;;5013268;28;20041;-65
2022/12/18 06:12:43;;;;;;;50.38;24.27;;;-6.40;99.90;;;;;;5015499;28;20033;-65
2022/12/18 06:15:09;;;;;;;46.08;23.05;;;-6.40;99.90;;;;;;5016398;28;20434;-66
2022/12/18 06:17:35;;;;;;;45.17;24.48;;;-6.50;99.90;;;;;;5014342;28;20029;-65
2022/12/18 06:20:01;;;;;;;37.75;21.95;;;-6.40;99.90;;;;;;5013676;28;20034;-65
2022/12/18 06:22:27;;;;;;;42.80;23.10;;;-6.40;99.90;;;;;;5024258;28;20107;-65
2022/12/18 06:24:53;;;;;;;46.03;21.90;;;-6.40;99.90;;;;;;5009856;28;20049;-65
2022/12/18 06:27:19;;;;;;;41.90;23.02;;;-6.50;99.90;;;;;;5011569;28;20405;-65
2022/12/18 06:29:45;;;;;;;44.78;22.17;;;-6.50;99.90;;;;;;5012270;28;20544;-66
2022/12/18 06:32:11;;;;;;;41.08;21.60;;;-6.50;99.90;;;;;;5022508;28;20493;-65
2022/12/18 06:34:40;;;;;;;42.22;22.40;;;-6.50;99.90;;;;;;5012072;28;20044;-65
2022/12/18 06:37:06;;;;;;;45.78;23.25;;;-6.50;99.90;;;;;;5030876;28;20490;-66
2022/12/18 06:39:31;;;;;;;44.08;21.85;;;-6.50;99.90;;;;;;5013078;28;20216;-65
2022/12/18 06:41:57;;;;;;;38.35;21.98;;;-6.50;99.90;;;;;;5015294;28;20049;-66
2022/12/18 06:44:23;;;;;;;45.15;22.92;;;-6.50;99.90;;;;;;5011868;28;20520;-66
2022/12/18 06:46:49;;;;;;;41.38;22.38;;;-6.50;99.90;;;;;;5013682;28;20034;-66
2022/12/18 06:49:15;;;;;;;42.47;22.70;;;-6.50;99.90;;;;;;5017085;28;20124;-66
2022/12/18 06:51:41;;;;;;;40.53;22.20;;;-6.50;99.90;;;;;;5017365;28;20128;-65
2022/12/18 06:54:07;;;;;;;40.50;21.63;;;-6.50;99.90;;;;;;5010965;28;20041;-66
2022/12/18 06:56:33;;;;;;;39.92;21.70;;;-6.50;99.90;;;;;;5016365;28;20108;-66
2022/12/18 06:58:58;;;;;;;40.17;21.00;;;-6.50;99.90;;;;;;5019752;28;20045;-66
2022/12/18 07:01:24;;;;;;;40.22;21.38;;;-6.50;99.90;;;;;;5018190;28;20042;-66
2022/12/18 07:03:54;;;;;;;44.90;21.20;;;-6.50;99.90;;;;;;5018786;28;20080;-66
2022/12/18 07:06:22;;;;;;;39.78;20.25;;;-6.50;99.90;;;;;;5014320;28;20053;-66
2022/12/18 07:08:48;;;;;;;36.05;21.17;;;-6.50;99.90;;;;;;5033430;28;20086;-66
2022/12/18 07:11:15;;;;;;;38.78;21.17;;;-6.50;99.90;;;;;;5017733;28;20503;-65
2022/12/18 07:13:41;;;;;;;40.05;20.92;;;-6.60;99.90;;;;;;5018620;28;20076;-65
2022/12/18 07:16:16;;;;;;;38.03;20.55;;;-6.50;99.90;;;;;;5011486;28;20046;-66
2022/12/18 07:18:42;;;;;;;39.60;21.08;;;-6.60;99.90;;;;;;5018729;28;20054;-66
2022/12/18 07:21:10;;;;;;;38.20;20.35;;;-6.60;99.90;;;;;;5015547;28;20046;-65
2022/12/18 07:23:36;;;;;;;41.03;20.85;;;-6.50;99.90;;;;;;5018219;28;20045;-65
2022/12/18 07:26:06;;;;;;;43.47;23.75;;;-6.50;99.90;;;;;;5016825;28;20040;-66
2022/12/18 07:28:33;;;;;;;45.47;22.80;;;-6.50;99.90;;;;;;5014811;28;20146;-65
2022/12/18 07:31:04;;;;;;;40.83;21.00;;;-6.60;99.90;;;;;;5020799;28;20041;-66
2022/12/18 07:33:30;;;;;;;40.25;22.67;;;-6.60;99.90;;;;;;5015762;28;20045;-66
2022/12/18 07:35:56;;;;;;;43.22;21.55;;;-6.60;99.90;;;;;;5011113;28;20042;-68
2022/12/18 07:38:21;;;;;;;46.45;23.92;;;-6.60;99.90;;;;;;5011022;28;20539;-66
2022/12/18 07:40:47;;;;;;;40.25;22.15;;;-6.70;99.90;;;;;;5010766;28;20544;-66
2022/12/18 07:43:13;;;;;;;46.42;23.80;;;-6.60;99.90;;;;;;5016263;28;20030;-66
2022/12/18 07:45:39;;;;;;;43.63;21.98;;;-6.70;99.90;;;;;;5011014;28;20052;-66
2022/12/18 07:48:04;;;;;;;40.28;23.60;;;-6.60;99.90;;;;;;5013075;28;20093;-66
2022/12/18 07:50:30;;;;;;;37.45;21.02;;;-6.60;99.90;;;;;;5018459;28;20045;-66
2022/12/18 07:52:56;;;;;;;40.88;21.55;;;-6.70;99.90;;;;;;5018138;28;20075;-67
2022/12/18 07:55:24;;;;;;;37.95;20.95;;;-6.60;99.90;;;;;;5014678;28;20096;-67
2022/12/18 07:57:50;;;;;;;43.85;23.10;;;-6.60;99.90;;;;;;5020251;28;20132;-67
2022/12/18 08:00:16;;;;;;;38.70;20.90;;;-6.60;99.90;;;;;;5014079;28;20048;-66
2022/12/18 08:02:42;;;;;;;36.22;20.88;;;-6.60;99.90;;;;;;5016370;28;20513;-65
2022/12/18 08:05:08;;;;;;;39.22;20.88;;;-6.50;99.90;;;;;;5019478;28;20055;-66
2022/12/18 08:07:34;;;;;;;36.20;21.23;;;-6.50;99.90;;;;;;5022056;28;20050;-67
2022/12/18 08:09:59;;;;;;;38.42;22.25;;;-6.50;99.90;;;;;;5019066;28;20059;-64
2022/12/18 08:12:25;;;;;;;40.83;21.38;;;-6.50;99.90;;;;;;5015628;28;20037;-66
2022/12/18 08:14:51;;;;;;;41.63;23.05;;;-6.40;99.90;;;;;;5016217;28;20540;-66
2022/12/18 08:17:16;;;;;;;38.90;20.48;;;-6.40;99.90;;;;;;5018372;28;20079;-66
2022/12/18 08:19:42;;;;;;;35.13;19.65;;;-6.30;99.90;;;;;;5021683;28;20495;-67
2022/12/18 08:22:08;;;;;;;36.65;20.92;;;-6.30;99.90;;;;;;5018333;28;20049;-66
2022/12/18 08:24:33;;;;;;;34.40;20.05;;;-6.30;99.90;;;;;;5018120;28;20038;-65
2022/12/18 08:26:59;;;;;;;35.70;19.75;;;-6.20;99.90;;;;;;5018920;28;20386;-67
2022/12/18 08:29:25;;;;;;;35.10;20.15;;;-6.20;99.90;;;;;;5023106;28;20342;-67
2022/12/18 08:31:51;;;;;;;30.65;18.50;;;-6.20;99.90;;;;;;5013694;28;20125;-67
2022/12/18 08:34:16;;;;;;;32.65;18.15;;;-6.10;99.90;;;;;;5016727;28;20120;-67
2022/12/18 08:36:42;;;;;;;41.42;20.45;;;-6.00;99.90;;;;;;5017918;28;20034;-67
2022/12/18 08:39:08;;;;;;;31.50;18.83;;;-6.00;99.90;;;;;;5020781;28;20037;-67
2022/12/18 08:41:33;;;;;;;33.08;19.23;;;-6.00;99.90;;;;;;5013242;28;20259;-67
2022/12/18 08:46:44;;;;;;;32.67;18.20;;;-5.90;99.90;;;;;;5015719;28;20474;-67
2022/12/18 08:49:11;;;;;;;30.88;18.20;;;-5.80;99.90;;;;;;5009381;28;20052;-66
2022/12/18 08:51:37;;;;;;;27.63;17.50;;;-5.70;99.90;;;;;;5015844;28;20069;-66
2022/12/18 08:54:04;;;;;;;33.22;19.70;;;-5.70;99.90;;;;;;5011396;28;20042;-66
2022/12/18 08:56:30;;;;;;;32.65;18.95;;;-5.60;99.90;;;;;;5014394;28;20041;-66
2022/12/18 08:58:56;;;;;;;29.65;18.77;;;-5.50;99.90;;;;;;5011660;28;20026;-66
2022/12/18 09:01:23;;;;;;;32.88;18.67;;;-5.40;99.90;;;;;;5016244;28;20040;-66
2022/12/18 09:03:50;;;;;;;26.40;17.40;;;-5.30;99.90;;;;;;5014383;28;20049;-66
2022/12/18 09:06:17;;;;;;;26.25;16.60;;;-5.20;99.90;;;;;;5012872;28;20053;-66
2022/12/18 09:08:44;;;;;;;25.42;16.52;;;-5.10;99.90;;;;;;5011601;28;20111;-67
2022/12/18 09:11:18;;;;;;;30.83;17.30;;;-5.00;99.90;;;;;;5015589;28;20045;-66
2022/12/18 09:13:44;;;;;;;33.55;17.85;;;-4.90;99.90;;;;;;5024623;28;20478;-66
2022/12/18 09:16:10;;;;;;;22.75;15.85;;;-4.80;99.90;;;;;;5008116;28;20098;-66
2022/12/18 09:18:36;;;;;;;25.38;16.90;;;-4.70;99.90;;;;;;5013797;28;20033;-66
2022/12/18 09:21:09;;;;;;;24.60;15.40;;;-4.60;99.90;;;;;;5006981;28;20436;-66
2022/12/18 09:23:34;;;;;;;28.05;16.75;;;-4.60;99.90;;;;;;5010579;28;20085;-66
2022/12/18 09:26:00;;;;;;;24.42;15.00;;;-4.50;99.90;;;;;;5018059;28;20073;-67
2022/12/18 09:28:27;;;;;;;26.05;15.00;;;-4.40;99.90;;;;;;5016175;28;20128;-66
2022/12/18 09:30:53;;;;;;;23.58;15.43;;;-4.30;99.90;;;;;;5023481;28;20045;-66
2022/12/18 09:33:18;;;;;;;26.48;15.80;;;-4.20;99.90;;;;;;5016597;28;20128;-67
2022/12/18 09:35:45;;;;;;;22.40;15.52;;;-4.20;99.90;;;;;;5031967;28;20137;-66
2022/12/18 09:38:15;;;;;;;21.55;14.40;;;-4.00;99.90;;;;;;5023031;28;20493;-67
2022/12/18 09:40:49;;;;;;;22.73;13.70;;;-4.00;99.90;;;;;;5015538;28;20056;-67
2022/12/18 09:43:27;;;;;;;22.75;13.38;;;-3.90;99.90;;;;;;5020921;28;20045;-66
2022/12/18 09:46:00;;;;;;;18.35;11.88;;;-3.80;99.90;;;;;;5020276;28;20038;-66
2022/12/18 09:48:38;;;;;;;22.05;13.05;;;-3.70;99.90;;;;;;5018706;28;20045;-67
2022/12/18 09:51:33;;;;;;;19.45;12.50;;;-3.60;99.90;;;;;;5022581;28;20045;-66
2022/12/18 09:54:04;;;;;;;18.52;11.88;;;-3.50;99.90;;;;;;5015745;28;20424;-66
2022/12/18 09:56:42;;;;;;;17.42;11.63;;;-3.40;99.90;;;;;;5019556;28;20053;-66
2022/12/18 09:59:20;;;;;;;19.50;12.52;;;-3.30;99.90;;;;;;5018070;28;20050;-66
2022/12/18 10:01:46;;;;;;;20.60;12.65;;;-3.20;99.90;;;;;;5015600;28;20037;-67
2022/12/18 10:04:11;;;;;;;17.60;12.15;;;-3.10;99.90;;;;;;5024196;28;20616;-67
2022/12/18 10:06:50;;;;;;;19.40;11.80;;;-3.10;99.90;;;;;;5015833;28;20153;-67
2022/12/18 10:09:30;;;;;;;18.05;11.23;;;-3.10;99.90;;;;;;5026836;28;20041;-67
2022/12/18 10:12:09;;;;;;;17.08;11.23;;;-3.00;99.90;;;;;;5015994;28;20453;-67
2022/12/18 10:14:50;;;;;;;19.67;11.75;;;-3.00;99.90;;;;;;5016188;28;20038;-67
2022/12/18 10:17:58;;;;;;;15.95;10.73;;;-2.90;99.90;;;;;;5031265;28;20128;-67
2022/12/18 10:20:57;;;;;;;15.43;10.40;;;-2.90;99.90;;;;;;5019733;28;20034;-67
2022/12/18 10:23:34;;;;;;;15.05;9.55;;;-2.90;99.90;;;;;;5005887;28;20065;-66
2022/12/18 10:26:06;;;;;;;16.70;10.48;;;-2.90;99.90;;;;;;5017964;28;20042;-66
2022/12/18 10:28:35;;;;;;;15.93;9.85;;;-2.80;99.90;;;;;;5020872;28;20456;-67
2022/12/18 10:31:01;;;;;;;15.50;10.10;;;-2.80;99.90;;;;;;5030636;28;20486;-66
2022/12/18 10:33:30;;;;;;;16.63;10.65;;;-2.80;99.90;;;;;;5038892;28;20568;-67
2022/12/18 10:35:56;;;;;;;15.00;10.27;;;-2.80;99.90;;;;;;5022767;28;20069;-67
2022/12/18 10:38:25;;;;;;;14.90;10.35;;;-2.70;99.90;;;;;;5016280;28;20042;-67
2022/12/18 10:41:05;;;;;;;14.75;10.15;;;-2.70;99.90;;;;;;5025296;28;20049;-67
2022/12/18 10:43:33;;;;;;;11.90;8.82;;;-2.60;99.90;;;;;;5016790;28;20064;-67
2022/12/18 10:46:02;;;;;;;13.50;9.30;;;-2.60;99.90;;;;;;5023059;28;20061;-67
2022/12/18 10:48:30;;;;;;;13.43;9.55;;;-2.50;99.90;;;;;;5019129;28;20076;-67
2022/12/18 10:50:57;;;;;;;13.43;8.57;;;-2.50;99.90;;;;;;5023153;28;20041;-66
2022/12/18 10:53:26;;;;;;;13.95;8.82;;;-2.50;99.90;;;;;;5021674;28;20220;-67
2022/12/18 10:55:55;;;;;;;12.73;8.32;;;-2.50;99.90;;;;;;5022832;28;20044;-67
2022/12/18 10:58:35;;;;;;;12.50;8.52;;;-2.50;99.90;;;;;;5022843;28;20085;-67
2022/12/18 11:01:17;;;;;;;12.23;7.90;;;-2.40;99.90;;;;;;5024335;28;20132;-67
2022/12/18 11:03:55;;;;;;;11.35;7.60;;;-2.40;99.90;;;;;;5020260;28;20046;-67
2022/12/18 11:06:24;;;;;;;11.30;7.47;;;-2.30;99.90;;;;;;5023198;28;20088;-67
2022/12/18 11:09:19;;;;;;;12.32;7.22;;;-2.30;99.90;;;;;;5027655;28;20468;-67
2022/12/18 11:11:54;;;;;;;11.38;7.28;;;-2.30;99.90;;;;;;5023364;28;20049;-67
2022/12/18 11:14:27;;;;;;;10.65;8.10;;;-2.20;99.90;;;;;;5013164;28;20037;-67
2022/12/18 11:16:55;;;;;;;12.57;7.82;;;-2.20;99.90;;;;;;5011923;28;20057;-67
2022/12/18 11:19:35;;;;;;;10.52;6.88;;;-2.20;99.90;;;;;;5018221;28;20049;-67
2022/12/18 11:22:20;;;;;;;11.23;6.85;;;-2.10;99.90;;;;;;5014207;28;20124;-67
2022/12/18 11:25:03;;;;;;;12.05;6.82;;;-2.10;99.90;;;;;;5020676;28;20049;-67
2022/12/18 11:27:29;;;;;;;9.98;6.57;;;-2.00;99.90;;;;;;5017999;28;20049;-67
2022/12/18 11:30:15;;;;;;;10.32;6.63;;;-2.00;99.90;;;;;;5017476;28;20374;-67
2022/12/18 11:32:46;;;;;;;9.88;6.15;;;-1.90;99.90;;;;;;5004934;28;20050;-67
2022/12/18 11:35:21;;;;;;;8.02;5.78;;;-1.90;99.90;;;;;;5022289;28;20071;-67
2022/12/18 11:37:57;;;;;;;8.45;6.05;;;-1.80;99.90;;;;;;5021472;28;20037;-67
2022/12/18 11:40:33;;;;;;;8.02;5.45;;;-1.80;99.90;;;;;;5022832;28;20509;-67
2022/12/18 11:43:06;;;;;;;8.25;5.72;;;-1.70;99.90;;;;;;5020404;28;20266;-67
2022/12/18 11:45:36;;;;;;;8.50;5.90;;;-1.70;99.90;;;;;;5025822;28;20038;-66
2022/12/18 11:48:23;;;;;;;7.03;4.93;;;-1.70;99.90;;;;;;5017180;28;20041;-67
2022/12/18 11:50:55;;;;;;;8.25;5.03;;;-1.60;99.90;;;;;;5019219;28;20524;-67
2022/12/18 11:53:22;;;;;;;9.40;5.10;;;-1.50;99.90;;;;;;5035703;28;20052;-67
2022/12/18 11:56:17;;;;;;;9.02;4.68;;;-1.50;99.90;;;;;;5016040;28;20106;-68
2022/12/18 11:58:54;;;;;;;7.00;4.72;;;-1.50;99.90;;;;;;5008848;28;20099;-67
2022/12/18 12:01:34;;;;;;;6.05;4.20;;;-1.50;99.90;;;;;;5034737;28;20042;-67
2022/12/18 12:04:30;;;;;;;8.55;4.60;;;-1.50;99.90;;;;;;5017221;28;20412;-67
2022/12/18 12:07:17;;;;;;;9.20;4.82;;;-1.40;99.90;;;;;;5012554;28;20061;-67
2022/12/18 12:10:13;;;;;;;7.07;4.35;;;-1.40;99.90;;;;;;5014146;28;20192;-67
2022/12/18 12:13:00;;;;;;;6.43;4.32;;;-1.40;99.90;;;;;;5019756;28;20049;-67
2022/12/18 12:15:30;;;;;;;7.10;4.78;;;-1.30;99.90;;;;;;5020524;28;20457;-67
2022/12/18 12:18:24;;;;;;;7.72;4.80;;;-1.30;99.90;;;;;;5020123;28;20116;-67
2022/12/18 12:20:55;;;;;;;7.63;4.35;;;-1.30;99.90;;;;;;5018765;28;20042;-67
2022/12/18 12:23:45;;;;;;;8.38;4.40;;;-1.30;99.90;;;;;;5020544;28;20048;-67
2022/12/18 12:26:21;;;;;;;8.40;4.93;;;-1.20;99.90;;;;;;5014760;28;20053;-67
2022/12/18 12:29:10;;;;;;;9.43;5.40;;;-1.30;99.90;;;;;;5011323;28;20049;-68
2022/12/18 12:31:49;;;;;;;7.43;5.10;;;-1.20;99.90;;;;;;5012807;28;20048;-67
2022/12/18 12:34:42;;;;;;;7.07;5.00;;;-1.20;99.90;;;;;;5014816;28;20120;-68
2022/12/18 12:37:44;;;;;;;7.45;4.75;;;-1.20;99.90;;;;;;5014140;28;20073;-67
2022/12/18 12:40:17;;;;;;;6.43;4.47;;;-1.20;99.90;;;;;;5009472;28;20057;-67
2022/12/18 12:46:03;;;;;;;9.35;5.25;;;-1.10;99.90;;;;;;5020976;28;20045;-67
2022/12/18 12:48:38;;;;;;;6.60;4.60;;;-1.00;99.90;;;;;;5019446;28;20151;-67
2022/12/18 12:51:12;;;;;;;7.70;4.88;;;-0.90;99.90;;;;;;5016853;28;20037;-67
2022/12/18 12:53:39;;;;;;;7.55;4.68;;;-0.90;99.90;;;;;;5017238;28;20045;-67
2022/12/18 12:56:08;;;;;;;7.63;5.72;;;-0.90;99.90;;;;;;5024257;28;20041;-67
2022/12/18 12:58:49;;;;;;;7.68;4.80;;;-0.80;99.90;;;;;;5018016;28;20060;-67